Back to Top

Language: 

My Weather Underground Personal Weather Station Historical Data with Graphs...

Delerius Weather Station Historical Data
Daily Summary for June 24, 2017 Units:  Metric    English   Both
« Previous Day
Next Day »
Daily Weekly Monthly Yearly Custom
  High: Low: Average:
Temperature: 20 °C 13.2 °C 16.5 °C
Dew Point: 14.4 °C 10.2 °C 12 °C
Humidity: 91 % 59 % 76 %
Wind Speed: 24.1 km/h 6.4 km/h 15.6 km/h
Wind Gust: 40.2 km/h - -
Wind:- - West
Pressure: 1011.1 hPa 1008.4 hPa -
Precipitation: 0 mm    
Historical Graphs
 
 
Tabular Data for June 24, 2017
Time Temperature Dew Point Pressure Wind Wind Speed Wind Gust Humidity Rainfall Rate (Hourly) solar Conditions
00:03 16.2 °C 14.4 °C 1010.4 hPa SW 11.3 km/h 19.3 km/h 89 % 0 mm 0 W/m2
00:08 16.2 °C 14.4 °C 1010.4 hPa WSW 11.3 km/h 19.3 km/h 89 % 0 mm 0 W/m2
00:13 16.2 °C 14.4 °C 1010.4 hPa WSW 12.9 km/h 19.3 km/h 89 % 0 mm 0 W/m2
00:18 16.1 °C 14.3 °C 1010.4 hPa WSW 12.9 km/h 19.3 km/h 89 % 0 mm 0 W/m2
00:23 16.2 °C 14.4 °C 1010.4 hPa WSW 11.3 km/h 17.7 km/h 89 % 0 mm 0 W/m2
00:28 16.2 °C 14.4 °C 1010.4 hPa WSW 11.3 km/h 20.9 km/h 89 % 0 mm 0 W/m2
00:33 16.2 °C 14.4 °C 1010 hPa WSW 11.3 km/h 20.9 km/h 89 % 0 mm 0 W/m2
00:38 16.1 °C 14.3 °C 1010.4 hPa WSW 11.3 km/h 17.7 km/h 89 % 0 mm 0 W/m2
00:43 16.1 °C 14.4 °C 1010 hPa WSW 11.3 km/h 17.7 km/h 90 % 0 mm 0 W/m2
00:45 16.1 °C 14.4 °C 1010 hPa WSW 11.3 km/h 17.7 km/h 90 % 0 mm 0 W/m2
00:50 16.1 °C 14.4 °C 1010 hPa WSW 11.3 km/h 16.1 km/h 90 % 0 mm 0 W/m2
00:55 16 °C 14.3 °C 1010 hPa SW 12.9 km/h 22.5 km/h 90 % 0 mm 0 W/m2
01:00 16 °C 14.3 °C 1010 hPa SW 14.5 km/h 22.5 km/h 90 % 0 mm 0 W/m2
01:05 15.9 °C 14.3 °C 1010 hPa WSW 12.9 km/h 22.5 km/h 90 % 0 mm 0 W/m2
01:10 15.9 °C 14.3 °C 1010 hPa SW 11.3 km/h 19.3 km/h 90 % 0 mm 0 W/m2
01:15 15.8 °C 14.2 °C 1010 hPa SW 11.3 km/h 17.7 km/h 90 % 0 mm 0 W/m2
01:20 15.8 °C 14.2 °C 1010 hPa WSW 9.7 km/h 17.7 km/h 90 % 0 mm 0 W/m2
01:25 15.8 °C 14.2 °C 1010 hPa WSW 9.7 km/h 17.7 km/h 90 % 0 mm 0 W/m2
01:30 15.7 °C 14.1 °C 1010 hPa WSW 9.7 km/h 14.5 km/h 90 % 0 mm 0 W/m2
01:35 15.7 °C 14.1 °C 1010 hPa WSW 9.7 km/h 14.5 km/h 90 % 0 mm 0 W/m2
01:40 15.7 °C 14.1 °C 1009.7 hPa WSW 9.7 km/h 22.5 km/h 90 % 0 mm 0 W/m2
01:45 15.7 °C 14.1 °C 1009.7 hPa WSW 12.9 km/h 24.1 km/h 90 % 0 mm 0 W/m2
01:50 15.7 °C 13.9 °C 1009.7 hPa WSW 12.9 km/h 24.1 km/h 89 % 0 mm 0 W/m2
01:55 15.8 °C 14 °C 1009.7 hPa WSW 12.9 km/h 20.9 km/h 89 % 0 mm 0 W/m2
02:00 15.8 °C 14 °C 1009.7 hPa WSW 12.9 km/h 22.5 km/h 89 % 0 mm 0 W/m2
02:05 15.8 °C 14 °C 1009.7 hPa WSW 12.9 km/h 22.5 km/h 89 % 0 mm 0 W/m2
02:10 15.9 °C 14.1 °C 1010 hPa West 12.9 km/h 20.9 km/h 89 % 0 mm 0 W/m2
02:15 15.8 °C 14 °C 1010 hPa WNW 12.9 km/h 22.5 km/h 89 % 0 mm 0 W/m2
02:20 15.6 °C 13.8 °C 1010 hPa WNW 12.9 km/h 22.5 km/h 89 % 0 mm 0 W/m2
02:25 15.3 °C 13.7 °C 1010 hPa WNW 14.5 km/h 22.5 km/h 90 % 0 mm 0 W/m2
02:30 15.1 °C 13.4 °C 1010.4 hPa WNW 12.9 km/h 22.5 km/h 90 % 0 mm 0 W/m2
02:35 15 °C 13.4 °C 1010.4 hPa WNW 12.9 km/h 20.9 km/h 90 % 0 mm 0 W/m2
02:40 14.8 °C 13.3 °C 1010.4 hPa WNW 12.9 km/h 22.5 km/h 91 % 0 mm 0 W/m2
02:45 14.7 °C 13.2 °C 1010.4 hPa WNW 12.9 km/h 22.5 km/h 91 % 0 mm 0 W/m2
02:50 14.6 °C 13.2 °C 1010.4 hPa WNW 12.9 km/h 20.9 km/h 91 % 0 mm 0 W/m2
02:55 14.4 °C 12.9 °C 1010.4 hPa WNW 14.5 km/h 33.8 km/h 91 % 0 mm 0 W/m2
03:00 14.3 °C 12.8 °C 1010.4 hPa WNW 16.1 km/h 33.8 km/h 91 % 0 mm 0 W/m2
03:05 14.1 °C 12.7 °C 1010.7 hPa WNW 16.1 km/h 33.8 km/h 91 % 0 mm 0 W/m2
03:10 14 °C 12.6 °C 1010.7 hPa West 16.1 km/h 33.8 km/h 91 % 0 mm 0 W/m2
03:15 13.9 °C 12.4 °C 1010.4 hPa West 16.1 km/h 29 km/h 91 % 0 mm 0 W/m2
03:20 13.9 °C 12.4 °C 1010.4 hPa West 14.5 km/h 24.1 km/h 91 % 0 mm 0 W/m2
03:26 13.8 °C 12.3 °C 1010.4 hPa West 14.5 km/h 22.5 km/h 91 % 0 mm 0 W/m2
03:31 13.8 °C 12.3 °C 1010.4 hPa West 12.9 km/h 22.5 km/h 91 % 0 mm 0 W/m2
03:36 13.7 °C 12.3 °C 1010.4 hPa West 11.3 km/h 20.9 km/h 91 % 0 mm 0 W/m2
03:41 13.6 °C 12.2 °C 1010.4 hPa West 12.9 km/h 20.9 km/h 91 % 0 mm 0 W/m2
03:46 13.4 °C 11.9 °C 1010.4 hPa West 11.3 km/h 20.9 km/h 91 % 0 mm 0 W/m2
03:51 13.4 °C 11.8 °C 1010.4 hPa West 11.3 km/h 20.9 km/h 90 % 0 mm 0 W/m2
03:56 13.3 °C 11.7 °C 1010.4 hPa West 8 km/h 16.1 km/h 90 % 0 mm 0 W/m2
04:01 13.3 °C 11.7 °C 1010.4 hPa West 6.4 km/h 11.3 km/h 90 % 0 mm 0 W/m2
04:06 13.2 °C 11.6 °C 1010.4 hPa West 6.4 km/h 11.3 km/h 90 % 0 mm 0 W/m2
04:11 13.2 °C 11.6 °C 1010.4 hPa West 8 km/h 12.9 km/h 90 % 0 mm 0 W/m2
04:16 13.2 °C 11.8 °C 1010.4 hPa West 8 km/h 12.9 km/h 91 % 0 mm 0 W/m2
04:21 13.3 °C 11.9 °C 1010.4 hPa West 8 km/h 16.1 km/h 91 % 0 mm 0 W/m2
04:26 13.3 °C 11.7 °C 1010.4 hPa West 9.7 km/h 16.1 km/h 90 % 0 mm 0 W/m2
04:31 13.4 °C 11.8 °C 1010.4 hPa West 9.7 km/h 22.5 km/h 90 % 0 mm 0 W/m2
04:36 13.4 °C 11.8 °C 1010.4 hPa West 9.7 km/h 22.5 km/h 90 % 0 mm 0 W/m2
04:41 13.4 °C 11.6 °C 1010.4 hPa West 9.7 km/h 20.9 km/h 89 % 0 mm 5 W/m2
04:46 13.4 °C 11.6 °C 1010.4 hPa West 9.7 km/h 20.9 km/h 89 % 0 mm 7 W/m2
04:51 13.4 °C 11.6 °C 1010.4 hPa West 9.7 km/h 20.9 km/h 89 % 0 mm 7 W/m2
04:56 13.4 °C 11.6 °C 1010.4 hPa West 9.7 km/h 20.9 km/h 89 % 0 mm 7 W/m2
05:01 13.4 °C 11.6 °C 1010.4 hPa West 9.7 km/h 17.7 km/h 89 % 0 mm 9 W/m2
05:06 13.4 °C 11.6 °C 1010.4 hPa West 9.7 km/h 17.7 km/h 89 % 0 mm 9 W/m2
05:11 13.4 °C 11.4 °C 1010.4 hPa West 11.3 km/h 17.7 km/h 88 % 0 mm 11 W/m2
05:16 13.5 °C 11.6 °C 1010 hPa West 12.9 km/h 20.9 km/h 88 % 0 mm 16 W/m2
05:21 13.6 °C 11.7 °C 1010 hPa West 12.9 km/h 22.5 km/h 88 % 0 mm 16 W/m2
05:26 13.6 °C 11.7 °C 1010 hPa West 12.9 km/h 22.5 km/h 88 % 0 mm 16 W/m2
05:31 13.6 °C 11.5 °C 1010 hPa West 11.3 km/h 20.9 km/h 87 % 0 mm 14 W/m2
05:36 13.6 °C 11.5 °C 1010.4 hPa West 12.9 km/h 22.5 km/h 87 % 0 mm 14 W/m2
05:41 13.6 °C 11.5 °C 1010.4 hPa West 14.5 km/h 22.5 km/h 87 % 0 mm 18 W/m2
05:46 13.5 °C 11.4 °C 1010.4 hPa West 11.3 km/h 19.3 km/h 87 % 0 mm 18 W/m2
05:51 13.4 °C 11.3 °C 1010.4 hPa West 9.7 km/h 17.7 km/h 87 % 0 mm 19 W/m2
05:56 13.4 °C 11.3 °C 1010.4 hPa West 9.7 km/h 17.7 km/h 87 % 0 mm 23 W/m2
06:01 13.4 °C 11.3 °C 1010.4 hPa West 11.3 km/h 20.9 km/h 87 % 0 mm 35 W/m2
06:06 13.6 °C 11.5 °C 1010.4 hPa West 14.5 km/h 29 km/h 87 % 0 mm 139 W/m2
06:11 13.7 °C 11.4 °C 1010.4 hPa West 16.1 km/h 32.2 km/h 86 % 0 mm 46 W/m2
06:16 13.8 °C 11.3 °C 1010.4 hPa West 16.1 km/h 32.2 km/h 85 % 0 mm 53 W/m2
06:21 13.9 °C 11.4 °C 1010.4 hPa West 14.5 km/h 29 km/h 85 % 0 mm 51 W/m2
06:26 14 °C 11.5 °C 1010.4 hPa West 14.5 km/h 25.7 km/h 85 % 0 mm 84 W/m2
06:31 14.1 °C 11.4 °C 1010.4 hPa West 14.5 km/h 24.1 km/h 84 % 0 mm 86 W/m2
06:36 14.2 °C 11.6 °C 1010.7 hPa West 12.9 km/h 19.3 km/h 84 % 0 mm 86 W/m2
06:41 14.2 °C 11.6 °C 1010.7 hPa West 12.9 km/h 19.3 km/h 84 % 0 mm 84 W/m2
06:46 14.2 °C 11.3 °C 1010.7 hPa West 14.5 km/h 22.5 km/h 83 % 0 mm 79 W/m2
06:51 14.2 °C 11.2 °C 1010.7 hPa West 16.1 km/h 22.5 km/h 82 % 0 mm 74 W/m2
06:56 14.2 °C 11.2 °C 1010.7 hPa WSW 16.1 km/h 25.7 km/h 82 % 0 mm 65 W/m2
07:01 14.2 °C 11.2 °C 1010.7 hPa West 14.5 km/h 25.7 km/h 82 % 0 mm 65 W/m2
07:06 14.2 °C 11.2 °C 1010.7 hPa West 12.9 km/h 22.5 km/h 82 % 0 mm 65 W/m2
07:11 14.2 °C 11.2 °C 1011.1 hPa West 12.9 km/h 24.1 km/h 82 % 0 mm 79 W/m2
07:16 14.3 °C 11.3 °C 1011.1 hPa West 12.9 km/h 24.1 km/h 82 % 0 mm 95 W/m2
07:21 14.3 °C 11.1 °C 1011.1 hPa West 14.5 km/h 25.7 km/h 81 % 0 mm 79 W/m2
07:26 14.3 °C 11.1 °C 1011.1 hPa West 14.5 km/h 25.7 km/h 81 % 0 mm 70 W/m2
07:31 14.3 °C 11.1 °C 1011.1 hPa West 14.5 km/h 30.6 km/h 81 % 0 mm 74 W/m2
07:36 14.3 °C 11.1 °C 1011.1 hPa West 14.5 km/h 30.6 km/h 81 % 0 mm 83 W/m2
07:41 14.3 °C 11.1 °C 1011.1 hPa WSW 14.5 km/h 24.1 km/h 81 % 0 mm 109 W/m2
07:46 14.3 °C 10.9 °C 1011.1 hPa West 16.1 km/h 32.2 km/h 80 % 0 mm 113 W/m2
07:52 14.4 °C 11 °C 1011.1 hPa West 17.7 km/h 32.2 km/h 80 % 0 mm 105 W/m2
07:57 14.5 °C 11.1 °C 1011.1 hPa West 16.1 km/h 25.7 km/h 80 % 0 mm 120 W/m2
08:02 14.5 °C 11.1 °C 1011.1 hPa West 14.5 km/h 24.1 km/h 80 % 0 mm 113 W/m2
08:07 14.6 °C 11.2 °C 1011.1 hPa West 12.9 km/h 24.1 km/h 80 % 0 mm 125 W/m2
08:12 14.6 °C 11.2 °C 1011.1 hPa West 12.9 km/h 20.9 km/h 80 % 0 mm 135 W/m2
08:17 14.6 °C 11.2 °C 1011.1 hPa West 14.5 km/h 29 km/h 80 % 0 mm 188 W/m2
08:22 14.7 °C 11.1 °C 1011.1 hPa West 16.1 km/h 29 km/h 79 % 0 mm 181 W/m2
08:27 14.8 °C 11.2 °C 1011.1 hPa West 17.7 km/h 30.6 km/h 79 % 0 mm 216 W/m2
08:32 14.9 °C 11.3 °C 1011.1 hPa West 17.7 km/h 30.6 km/h 79 % 0 mm 229 W/m2
08:37 15.1 °C 11.3 °C 1011.1 hPa West 16.1 km/h 29 km/h 78 % 0 mm 278 W/m2
08:42 15.2 °C 11.2 °C 1011.1 hPa West 16.1 km/h 29 km/h 77 % 0 mm 243 W/m2
08:47 15.4 °C 11.4 °C 1011.1 hPa West 16.1 km/h 25.7 km/h 77 % 0 mm 596 W/m2
08:52 15.8 °C 11.6 °C 1011.1 hPa West 16.1 km/h 25.7 km/h 76 % 0 mm 622 W/m2
08:57 16.3 °C 11.7 °C 1011.1 hPa West 17.7 km/h 37 km/h 74 % 0 mm 236 W/m2
09:02 16.5 °C 11.7 °C 1011.1 hPa West 20.9 km/h 37 km/h 73 % 0 mm 185 W/m2
09:07 16.6 °C 11.3 °C 1011.1 hPa West 22.5 km/h 37 km/h 71 % 0 mm 652 W/m2
09:12 16.7 °C 11.2 °C 1011.1 hPa West 22.5 km/h 38.6 km/h 70 % 0 mm 714 W/m2
09:17 16.8 °C 11.5 °C 1010.7 hPa West 19.3 km/h 38.6 km/h 71 % 0 mm 738 W/m2
09:22 17 °C 11.7 °C 1011.1 hPa West 16.1 km/h 29 km/h 71 % 0 mm 779 W/m2
09:27 16.9 °C 11.2 °C 1011.1 hPa West 19.3 km/h 37 km/h 69 % 0 mm 304 W/m2
09:32 16.7 °C 11.2 °C 1011.1 hPa West 20.9 km/h 37 km/h 70 % 0 mm 299 W/m2
09:37 16.6 °C 11.3 °C 1010.7 hPa West 20.9 km/h 35.4 km/h 71 % 0 mm 299 W/m2
09:42 16.7 °C 11.6 °C 1011.1 hPa West 19.3 km/h 32.2 km/h 72 % 0 mm 364 W/m2
09:52 16.8 °C 11.7 °C 1010.7 hPa West 20.9 km/h 37 km/h 72 % 0 mm 789 W/m2
09:57 16.9 °C 11.6 °C 1010.7 hPa West 20.9 km/h 37 km/h 71 % 0 mm 795 W/m2
10:02 17.2 °C 12.1 °C 1010.7 hPa West 17.7 km/h 35.4 km/h 72 % 0 mm 947 W/m2
10:07 17.5 °C 12.2 °C 1010.7 hPa West 16.1 km/h 35.4 km/h 71 % 0 mm 341 W/m2
10:12 17.7 °C 11.9 °C 1010.7 hPa West 16.1 km/h 38.6 km/h 69 % 0 mm 334 W/m2
10:17 17.3 °C 11.3 °C 1010.7 hPa West 19.3 km/h 40.2 km/h 68 % 0 mm 304 W/m2
10:22 16.9 °C 11.4 °C 1010.7 hPa WSW 24.1 km/h 40.2 km/h 70 % 0 mm 329 W/m2
10:27 16.8 °C 11.3 °C 1010.7 hPa WSW 20.9 km/h 35.4 km/h 70 % 0 mm 320 W/m2
10:32 16.7 °C 11.2 °C 1010.7 hPa West 20.9 km/h 33.8 km/h 70 % 0 mm 251 W/m2
10:38 16.7 °C 11.2 °C 1010.7 hPa West 24.1 km/h 37 km/h 70 % 0 mm 287 W/m2
10:39 16.7 °C 11.2 °C 1010.7 hPa West 24.1 km/h 37 km/h 70 % 0 mm 287 W/m2
10:44 16.8 °C 11.3 °C 1010.7 hPa West 20.9 km/h 37 km/h 70 % 0 mm 279 W/m2
10:49 16.8 °C 11.1 °C 1011.1 hPa West 19.3 km/h 33.8 km/h 69 % 0 mm 290 W/m2
10:54 16.9 °C 11.4 °C 1011.1 hPa West 22.5 km/h 37 km/h 70 % 0 mm 308 W/m2
10:59 16.8 °C 11.3 °C 1011.1 hPa WSW 19.3 km/h 37 km/h 70 % 0 mm 325 W/m2
11:04 16.9 °C 11.2 °C 1011.1 hPa West 17.7 km/h 32.2 km/h 69 % 0 mm 323 W/m2
11:09 16.9 °C 10.5 °C 1011.1 hPa West 17.7 km/h 32.2 km/h 66 % 0 mm 388 W/m2
11:14 17.1 °C 10.2 °C 1011.1 hPa West 20.9 km/h 35.4 km/h 64 % 0 mm 441 W/m2
11:19 17.3 °C 10.7 °C 1011.1 hPa West 24.1 km/h 40.2 km/h 65 % 0 mm 601 W/m2
11:24 17.5 °C 11.1 °C 1010.7 hPa West 22.5 km/h 40.2 km/h 66 % 0 mm 441 W/m2
11:29 17.6 °C 11.2 °C 1011.1 hPa West 22.5 km/h 35.4 km/h 66 % 0 mm 506 W/m2
11:34 17.6 °C 11.2 °C 1011.1 hPa West 22.5 km/h 35.4 km/h 66 % 0 mm 471 W/m2
11:39 17.6 °C 10.9 °C 1011.1 hPa West 19.3 km/h 30.6 km/h 65 % 0 mm 480 W/m2
11:44 17.8 °C 10.9 °C 1010.7 hPa West 17.7 km/h 30.6 km/h 64 % 0 mm 726 W/m2
11:50 18.3 °C 11.4 °C 1010.7 hPa West 17.7 km/h 33.8 km/h 64 % 0 mm 464 W/m2
11:55 18.3 °C 10.9 °C 1010.7 hPa West 19.3 km/h 35.4 km/h 62 % 0 mm 441 W/m2
12:00 18.3 °C 10.9 °C 1010.7 hPa West 19.3 km/h 37 km/h 62 % 0 mm 594 W/m2
12:05 18.5 °C 11.3 °C 1010.7 hPa West 16.1 km/h 37 km/h 63 % 0 mm 526 W/m2
12:10 18.6 °C 11.4 °C 1010.7 hPa West 17.7 km/h 32.2 km/h 63 % 0 mm 570 W/m2
12:15 18.6 °C 11.2 °C 1010.7 hPa WSW 19.3 km/h 33.8 km/h 62 % 0 mm 853 W/m2
12:20 18.8 °C 11.1 °C 1010.7 hPa WSW 20.9 km/h 37 km/h 61 % 0 mm 1062 W/m2
12:25 19.1 °C 11.4 °C 1010.7 hPa West 20.9 km/h 37 km/h 61 % 0 mm 932 W/m2
12:30 19.3 °C 11.1 °C 1010.7 hPa West 22.5 km/h 35.4 km/h 59 % 0 mm 686 W/m2
12:35 19.1 °C 11.2 °C 1010.7 hPa WSW 22.5 km/h 35.4 km/h 60 % 0 mm 591 W/m2
12:40 19 °C 11.1 °C 1010.7 hPa WSW 19.3 km/h 32.2 km/h 60 % 0 mm 406 W/m2
12:45 18.6 °C 11.4 °C 1010.7 hPa WSW 19.3 km/h 35.4 km/h 63 % 0 mm 534 W/m2
12:50 18.6 °C 11.7 °C 1010.7 hPa WSW 17.7 km/h 35.4 km/h 64 % 0 mm 362 W/m2
12:55 18.6 °C 11.2 °C 1010.7 hPa WSW 17.7 km/h 32.2 km/h 62 % 0 mm 680 W/m2
13:00 18.9 °C 11.7 °C 1010.4 hPa WSW 19.3 km/h 32.2 km/h 63 % 0 mm 1151 W/m2
13:05 19.4 °C 11.7 °C 1010.7 hPa West 19.3 km/h 32.2 km/h 61 % 0 mm 589 W/m2
13:10 19.8 °C 12.1 °C 1010.7 hPa West 16.1 km/h 32.2 km/h 61 % 0 mm 459 W/m2
13:15 19.7 °C 11.4 °C 1010.7 hPa West 17.7 km/h 30.6 km/h 59 % 0 mm 499 W/m2
13:20 19.4 °C 11.9 °C 1010.7 hPa WSW 19.3 km/h 33.8 km/h 62 % 0 mm 366 W/m2
13:25 19.1 °C 11.9 °C 1010.7 hPa WSW 19.3 km/h 33.8 km/h 63 % 0 mm 429 W/m2
13:30 18.9 °C 12.2 °C 1010.7 hPa West 19.3 km/h 33.8 km/h 65 % 0 mm 422 W/m2
13:35 18.8 °C 12.1 °C 1010.7 hPa West 17.7 km/h 32.2 km/h 65 % 0 mm 315 W/m2
13:36 18.7 °C 12 °C 1010.7 hPa West 19.3 km/h 32.2 km/h 65 % 0 mm 315 W/m2
13:41 18.5 °C 12 °C 1010.7 hPa West 17.7 km/h 29 km/h 66 % 0 mm 408 W/m2
13:46 18.4 °C 11.9 °C 1010.7 hPa West 19.3 km/h 32.2 km/h 66 % 0 mm 338 W/m2
13:51 18.1 °C 11.7 °C 1010.7 hPa West 20.9 km/h 35.4 km/h 66 % 0 mm 218 W/m2
13:56 18 °C 12 °C 1010.7 hPa WSW 17.7 km/h 35.4 km/h 68 % 0 mm 406 W/m2
14:01 18.2 °C 12.2 °C 1010.7 hPa WSW 14.5 km/h 29 km/h 68 % 0 mm 250 W/m2
14:06 18.1 °C 11.9 °C 1010.7 hPa WSW 17.7 km/h 30.6 km/h 67 % 0 mm 246 W/m2
14:11 17.7 °C 11.7 °C 1010.7 hPa WSW 19.3 km/h 30.6 km/h 68 % 0 mm 178 W/m2
14:16 17.4 °C 11.7 °C 1010.7 hPa WSW 19.3 km/h 30.6 km/h 69 % 0 mm 125 W/m2
14:21 17.3 °C 11.8 °C 1010.7 hPa West 17.7 km/h 29 km/h 70 % 0 mm 162 W/m2
14:26 17.3 °C 11.8 °C 1010.7 hPa West 16.1 km/h 32.2 km/h 70 % 0 mm 148 W/m2
14:31 17.3 °C 12 °C 1010.7 hPa West 17.7 km/h 32.2 km/h 71 % 0 mm 237 W/m2
14:36 17.3 °C 11.8 °C 1010.7 hPa West 16.1 km/h 30.6 km/h 70 % 0 mm 216 W/m2
14:41 17.4 °C 11.9 °C 1010.4 hPa West 16.1 km/h 30.6 km/h 70 % 0 mm 283 W/m2
14:46 17.4 °C 11.7 °C 1010.7 hPa West 19.3 km/h 33.8 km/h 69 % 0 mm 251 W/m2
14:51 17.4 °C 11.7 °C 1010.4 hPa WSW 20.9 km/h 33.8 km/h 69 % 0 mm 292 W/m2
14:56 17.4 °C 11.7 °C 1010.4 hPa West 20.9 km/h 33.8 km/h 69 % 0 mm 299 W/m2
15:01 17.5 °C 11.7 °C 1010.4 hPa WSW 19.3 km/h 32.2 km/h 69 % 0 mm 237 W/m2
15:06 17.6 °C 12.1 °C 1010.4 hPa WSW 17.7 km/h 35.4 km/h 70 % 0 mm 241 W/m2
15:12 17.6 °C 12.1 °C 1010.4 hPa West 16.1 km/h 35.4 km/h 70 % 0 mm 237 W/m2
15:17 17.4 °C 11.9 °C 1010.4 hPa West 17.7 km/h 29 km/h 70 % 0 mm 250 W/m2
15:22 17.6 °C 12.1 °C 1010.4 hPa WSW 14.5 km/h 29 km/h 70 % 0 mm 225 W/m2
15:27 17.7 °C 12.2 °C 1010.4 hPa WSW 12.9 km/h 22.5 km/h 70 % 0 mm 334 W/m2
15:32 17.7 °C 11.9 °C 1010.4 hPa WSW 17.7 km/h 32.2 km/h 69 % 0 mm 526 W/m2
15:37 18.3 °C 12.1 °C 1010 hPa West 19.3 km/h 32.2 km/h 67 % 0 mm 694 W/m2
15:42 18.6 °C 12.3 °C 1010 hPa WSW 19.3 km/h 33.8 km/h 67 % 0 mm 515 W/m2
15:47 18.9 °C 12.6 °C 1010 hPa WSW 19.3 km/h 33.8 km/h 67 % 0 mm 1007 W/m2
15:52 19.1 °C 12.4 °C 1010 hPa WSW 17.7 km/h 30.6 km/h 65 % 0 mm 410 W/m2
15:57 19.1 °C 12.4 °C 1010 hPa WSW 19.3 km/h 33.8 km/h 65 % 0 mm 410 W/m2
16:02 19.1 °C 12.6 °C 1010 hPa WSW 19.3 km/h 33.8 km/h 66 % 0 mm 339 W/m2
16:07 18.9 °C 12.6 °C 1009.7 hPa WSW 19.3 km/h 32.2 km/h 67 % 0 mm 338 W/m2
16:12 19 °C 12.7 °C 1009.7 hPa WSW 17.7 km/h 32.2 km/h 67 % 0 mm 265 W/m2
16:17 18.9 °C 12.6 °C 1009.7 hPa WSW 17.7 km/h 32.2 km/h 67 % 0 mm 218 W/m2
16:22 18.8 °C 12.8 °C 1010 hPa WSW 17.7 km/h 30.6 km/h 68 % 0 mm 234 W/m2
16:27 19 °C 12.9 °C 1009.7 hPa West 17.7 km/h 30.6 km/h 68 % 0 mm 772 W/m2
16:32 19.3 °C 12.8 °C 1009.7 hPa West 17.7 km/h 37 km/h 66 % 0 mm 810 W/m2
16:37 19.7 °C 12.9 °C 1009.7 hPa West 17.7 km/h 37 km/h 65 % 0 mm 751 W/m2
16:42 20 °C 12.7 °C 1009.7 hPa West 19.3 km/h 40.2 km/h 63 % 0 mm 761 W/m2
16:47 19.8 °C 12.6 °C 1009.7 hPa West 22.5 km/h 40.2 km/h 63 % 0 mm 260 W/m2
16:52 19.7 °C 12.7 °C 1009.7 hPa West 20.9 km/h 35.4 km/h 64 % 0 mm 225 W/m2
16:57 19.6 °C 12.6 °C 1009.7 hPa West 16.1 km/h 35.4 km/h 64 % 0 mm 207 W/m2
17:02 19.6 °C 13.1 °C 1009.4 hPa West 16.1 km/h 29 km/h 66 % 0 mm 777 W/m2
17:07 19.5 °C 13 °C 1009.4 hPa WSW 17.7 km/h 30.6 km/h 66 % 0 mm 777 W/m2
17:12 19.7 °C 13.2 °C 1009.4 hPa WSW 16.1 km/h 30.6 km/h 66 % 0 mm 631 W/m2
17:17 19.8 °C 12.6 °C 1009.4 hPa WSW 19.3 km/h 40.2 km/h 63 % 0 mm 564 W/m2
17:22 19.7 °C 12.4 °C 1009 hPa WSW 20.9 km/h 40.2 km/h 63 % 0 mm 543 W/m2
17:27 19.7 °C 12.2 °C 1009 hPa WSW 20.9 km/h 37 km/h 62 % 0 mm 531 W/m2
17:32 19.7 °C 12.4 °C 1009 hPa WSW 22.5 km/h 37 km/h 63 % 0 mm 533 W/m2
17:37 19.5 °C 12.3 °C 1009 hPa WSW 22.5 km/h 37 km/h 63 % 0 mm 519 W/m2
17:42 19.4 °C 12.7 °C 1009 hPa WSW 19.3 km/h 35.4 km/h 65 % 0 mm 480 W/m2
17:47 19.3 °C 12.8 °C 1009 hPa WSW 16.1 km/h 32.2 km/h 66 % 0 mm 480 W/m2
17:52 19.2 °C 12.4 °C 1009 hPa WSW 17.7 km/h 32.2 km/h 65 % 0 mm 545 W/m2
17:57 19.3 °C 12.6 °C 1008.7 hPa WSW 17.7 km/h 30.6 km/h 65 % 0 mm 443 W/m2
18:02 19.5 °C 12.5 °C 1008.7 hPa WSW 19.3 km/h 35.4 km/h 64 % 0 mm 434 W/m2
18:07 19.6 °C 12.4 °C 1008.7 hPa WSW 20.9 km/h 38.6 km/h 63 % 0 mm 113 W/m2
18:08 19.6 °C 12.4 °C 1008.7 hPa WSW 20.9 km/h 38.6 km/h 63 % 0 mm 76 W/m2
18:13 19.2 °C 12.2 °C 1008.7 hPa WSW 20.9 km/h 38.6 km/h 64 % 0 mm 445 W/m2
18:18 19.1 °C 12.4 °C 1008.7 hPa WSW 19.3 km/h 33.8 km/h 65 % 0 mm 69 W/m2
18:23 18.9 °C 12.4 °C 1008.7 hPa WSW 17.7 km/h 29 km/h 66 % 0 mm 155 W/m2
18:28 18.8 °C 12.3 °C 1008.7 hPa WSW 17.7 km/h 30.6 km/h 66 % 0 mm 104 W/m2
18:33 18.7 °C 12.4 °C 1008.7 hPa WSW 17.7 km/h 30.6 km/h 67 % 0 mm 105 W/m2
18:38 18.7 °C 12.7 °C 1008.7 hPa West 14.5 km/h 29 km/h 68 % 0 mm 104 W/m2
18:43 18.8 °C 12.6 °C 1008.7 hPa West 12.9 km/h 24.1 km/h 67 % 0 mm 90 W/m2
18:48 18.8 °C 12.6 °C 1008.7 hPa West 14.5 km/h 25.7 km/h 67 % 0 mm 81 W/m2
18:53 18.9 °C 12.9 °C 1008.7 hPa West 14.5 km/h 25.7 km/h 68 % 0 mm 125 W/m2
18:58 18.9 °C 12.6 °C 1008.7 hPa West 14.5 km/h 33.8 km/h 67 % 0 mm 158 W/m2
19:03 18.8 °C 12.6 °C 1008.4 hPa West 17.7 km/h 33.8 km/h 67 % 0 mm 116 W/m2
19:08 18.7 °C 12.7 °C 1008.7 hPa WSW 17.7 km/h 32.2 km/h 68 % 0 mm 135 W/m2
19:13 18.7 °C 12.7 °C 1008.4 hPa West 17.7 km/h 32.2 km/h 68 % 0 mm 281 W/m2
19:18 18.6 °C 12.8 °C 1008.4 hPa West 17.7 km/h 32.2 km/h 69 % 0 mm 69 W/m2
19:23 18.7 °C 12.7 °C 1008.4 hPa West 16.1 km/h 32.2 km/h 68 % 0 mm 134 W/m2
19:28 18.6 °C 12.6 °C 1008.4 hPa West 17.7 km/h 32.2 km/h 68 % 0 mm 39 W/m2
19:33 18.4 °C 12.6 °C 1008.7 hPa West 16.1 km/h 30.6 km/h 69 % 0 mm 49 W/m2
19:35 18.3 °C 12.5 °C 1008.7 hPa West 16.1 km/h 25.7 km/h 69 % 0 mm 227 W/m2
19:40 18.3 °C 12.5 °C 1008.7 hPa West 14.5 km/h 24.1 km/h 69 % 0 mm 144 W/m2
19:45 18.4 °C 12.6 °C 1008.7 hPa West 14.5 km/h 25.7 km/h 69 % 0 mm 84 W/m2
19:50 18.3 °C 12.7 °C 1008.7 hPa West 14.5 km/h 25.7 km/h 70 % 0 mm 47 W/m2
19:55 18.3 °C 12.7 °C 1008.4 hPa West 12.9 km/h 24.1 km/h 70 % 0 mm 165 W/m2
20:00 18.3 °C 12.7 °C 1008.4 hPa West 14.5 km/h 24.1 km/h 70 % 0 mm 97 W/m2
20:05 18.4 °C 12.6 °C 1008.4 hPa West 14.5 km/h 30.6 km/h 69 % 0 mm 97 W/m2
20:10 18.3 °C 12.3 °C 1008.4 hPa West 16.1 km/h 30.6 km/h 68 % 0 mm 42 W/m2
20:15 18.1 °C 12.1 °C 1008.7 hPa West 16.1 km/h 25.7 km/h 68 % 0 mm 46 W/m2
20:21 18 °C 12.2 °C 1008.7 hPa West 17.7 km/h 32.2 km/h 69 % 0 mm 53 W/m2
20:26 17.9 °C 12.1 °C 1008.7 hPa West 16.1 km/h 32.2 km/h 69 % 0 mm 53 W/m2
20:31 17.8 °C 12.3 °C 1008.7 hPa West 14.5 km/h 22.5 km/h 70 % 0 mm 40 W/m2
20:36 17.8 °C 12.3 °C 1008.7 hPa West 14.5 km/h 32.2 km/h 70 % 0 mm 53 W/m2
20:41 17.6 °C 12.3 °C 1008.7 hPa West 17.7 km/h 32.2 km/h 71 % 0 mm 25 W/m2
20:46 17.4 °C 12.1 °C 1008.7 hPa West 17.7 km/h 32.2 km/h 71 % 0 mm 19 W/m2
20:51 17.3 °C 12.2 °C 1008.7 hPa WNW 16.1 km/h 32.2 km/h 72 % 0 mm 16 W/m2
20:56 17.1 °C 12 °C 1008.7 hPa WNW 16.1 km/h 29 km/h 72 % 0 mm 12 W/m2
21:01 16.9 °C 12 °C 1009 hPa WNW 16.1 km/h 30.6 km/h 73 % 0 mm 12 W/m2
21:06 16.7 °C 12.1 °C 1008.7 hPa WNW 16.1 km/h 30.6 km/h 74 % 0 mm 11 W/m2
21:11 16.5 °C 11.8 °C 1008.7 hPa WNW 14.5 km/h 24.1 km/h 74 % 0 mm 12 W/m2
21:16 16.3 °C 11.8 °C 1009 hPa WNW 14.5 km/h 24.1 km/h 75 % 0 mm 11 W/m2
21:21 16.2 °C 11.8 °C 1009 hPa WNW 12.9 km/h 20.9 km/h 75 % 0 mm 11 W/m2
21:26 16.1 °C 11.7 °C 1009 hPa WNW 12.9 km/h 20.9 km/h 75 % 0 mm 11 W/m2
21:31 15.9 °C 11.7 °C 1009 hPa WNW 12.9 km/h 20.9 km/h 76 % 0 mm 9 W/m2
21:36 15.8 °C 11.6 °C 1009 hPa West 9.7 km/h 20.9 km/h 76 % 0 mm 5 W/m2
21:37 15.8 °C 11.6 °C 1009 hPa West 9.7 km/h 20.9 km/h 76 % 0 mm 5 W/m2
21:42 15.7 °C 11.3 °C 1009 hPa West 9.7 km/h 19.3 km/h 75 % 0 mm 0 W/m2
21:47 15.6 °C 11.2 °C 1009 hPa West 11.3 km/h 19.3 km/h 75 % 0 mm 0 W/m2
21:52 15.5 °C 11.1 °C 1009 hPa West 9.7 km/h 19.3 km/h 75 % 0 mm 0 W/m2
21:57 15.4 °C 10.8 °C 1009 hPa West 9.7 km/h 19.3 km/h 74 % 0 mm 0 W/m2
22:02 15.3 °C 10.7 °C 1009 hPa West 9.7 km/h 19.3 km/h 74 % 0 mm 0 W/m2
22:07 15.3 °C 10.9 °C 1009 hPa West 8 km/h 16.1 km/h 75 % 0 mm 0 W/m2
22:12 15.2 °C 10.8 °C 1009 hPa WSW 8 km/h 14.5 km/h 75 % 0 mm 0 W/m2
22:17 15.2 °C 10.8 °C 1009 hPa WSW 6.4 km/h 12.9 km/h 75 % 0 mm 0 W/m2
22:22 15.2 °C 10.8 °C 1009 hPa WSW 8 km/h 14.5 km/h 75 % 0 mm 0 W/m2
22:27 15.2 °C 10.8 °C 1009 hPa WSW 9.7 km/h 19.3 km/h 75 % 0 mm 0 W/m2
22:32 15.2 °C 10.6 °C 1009 hPa West 11.3 km/h 24.1 km/h 74 % 0 mm 0 W/m2
22:37 15.2 °C 10.6 °C 1009.4 hPa West 14.5 km/h 24.1 km/h 74 % 0 mm 0 W/m2
22:42 15.2 °C 10.8 °C 1009 hPa West 16.1 km/h 30.6 km/h 75 % 0 mm 0 W/m2
22:47 15.2 °C 10.8 °C 1009 hPa West 17.7 km/h 30.6 km/h 75 % 0 mm 0 W/m2
22:52 15 °C 10.8 °C 1009 hPa West 16.1 km/h 25.7 km/h 76 % 0 mm 0 W/m2
22:58 14.9 °C 10.9 °C 1009 hPa West 14.5 km/h 25.7 km/h 77 % 0 mm 0 W/m2
23:03 14.8 °C 11 °C 1009 hPa West 14.5 km/h 25.7 km/h 78 % 0 mm 0 W/m2
23:08 14.7 °C 10.9 °C 1009 hPa WSW 16.1 km/h 30.6 km/h 78 % 0 mm 0 W/m2
23:13 14.7 °C 11.1 °C 1009 hPa West 16.1 km/h 30.6 km/h 79 % 0 mm 0 W/m2
23:18 14.7 °C 11.1 °C 1009 hPa West 14.5 km/h 30.6 km/h 79 % 0 mm 0 W/m2
23:23 14.6 °C 11.2 °C 1009 hPa West 12.9 km/h 19.3 km/h 80 % 0 mm 0 W/m2
23:28 14.6 °C 11.2 °C 1009.4 hPa West 12.9 km/h 24.1 km/h 80 % 0 mm 0 W/m2
23:33 14.6 °C 11.2 °C 1009 hPa West 12.9 km/h 24.1 km/h 80 % 0 mm 0 W/m2
23:38 14.6 °C 11.2 °C 1009 hPa West 12.9 km/h 20.9 km/h 80 % 0 mm 0 W/m2
23:43 14.6 °C 11.2 °C 1009 hPa West 14.5 km/h 24.1 km/h 80 % 0 mm 0 W/m2
23:48 14.6 °C 11.2 °C 1009 hPa West 14.5 km/h 24.1 km/h 80 % 0 mm 0 W/m2
23:53 14.7 °C 11.3 °C 1009 hPa WSW 12.9 km/h 24.1 km/h 80 % 0 mm 0 W/m2
23:58 14.7 °C 11.4 °C 1009 hPa West 12.9 km/h 24.1 km/h 81 % 0 mm 0 W/m2
Delerius-Weather
Compliments of Weather Underground - 2.25 mb

Data updates at regular intervals.